sensor_id;sensor_type;location;lat;lon;timestamp;P1;durP1;ratioP1;P2;durP2;ratioP2
42668;SDS011;29384;42.028;21.388;2023-02-15T00:01:53;24.00;;;12.60;;
42668;SDS011;29384;42.028;21.388;2023-02-15T00:04:20;20.55;;;11.70;;
42668;SDS011;29384;42.028;21.388;2023-02-15T00:09:48;25.17;;;13.95;;
42668;SDS011;29384;42.028;21.388;2023-02-15T00:12:13;22.55;;;12.55;;
42668;SDS011;29384;42.028;21.388;2023-02-15T00:14:39;27.98;;;13.52;;
42668;SDS011;29384;42.028;21.388;2023-02-15T00:17:04;37.03;;;15.65;;
42668;SDS011;29384;42.028;21.388;2023-02-15T00:19:30;29.52;;;15.65;;
42668;SDS011;29384;42.028;21.388;2023-02-15T00:24:58;32.45;;;15.38;;
42668;SDS011;29384;42.028;21.388;2023-02-15T00:27:23;41.95;;;18.25;;
42668;SDS011;29384;42.028;21.388;2023-02-15T00:29:48;42.60;;;19.30;;
42668;SDS011;29384;42.028;21.388;2023-02-15T00:32:14;39.80;;;18.23;;
42668;SDS011;29384;42.028;21.388;2023-02-15T00:34:39;37.92;;;18.58;;
42668;SDS011;29384;42.028;21.388;2023-02-15T00:40:07;46.47;;;21.00;;
42668;SDS011;29384;42.028;21.388;2023-02-15T00:42:32;55.08;;;25.23;;
42668;SDS011;29384;42.028;21.388;2023-02-15T00:44:57;46.70;;;22.85;;
42668;SDS011;29384;42.028;21.388;2023-02-15T00:47:23;52.42;;;22.40;;
42668;SDS011;29384;42.028;21.388;2023-02-15T00:49:50;39.88;;;20.15;;
42668;SDS011;29384;42.028;21.388;2023-02-15T00:55:18;27.88;;;15.68;;
42668;SDS011;29384;42.028;21.388;2023-02-15T00:57:43;21.33;;;13.15;;
42668;SDS011;29384;42.028;21.388;2023-02-15T01:00:08;22.95;;;12.20;;
42668;SDS011;29384;42.028;21.388;2023-02-15T01:02:34;26.85;;;14.10;;
42668;SDS011;29384;42.028;21.388;2023-02-15T01:04:59;33.88;;;12.40;;
42668;SDS011;29384;42.028;21.388;2023-02-15T01:10:27;24.02;;;10.77;;
42668;SDS011;29384;42.028;21.388;2023-02-15T01:12:53;24.58;;;11.90;;
42668;SDS011;29384;42.028;21.388;2023-02-15T01:15:18;22.02;;;13.07;;
42668;SDS011;29384;42.028;21.388;2023-02-15T01:17:43;29.33;;;13.68;;
42668;SDS011;29384;42.028;21.388;2023-02-15T01:20:14;20.05;;;10.95;;
42668;SDS011;29384;42.028;21.388;2023-02-15T01:25:42;15.00;;;9.43;;
42668;SDS011;29384;42.028;21.388;2023-02-15T01:28:07;24.20;;;13.73;;
42668;SDS011;29384;42.028;21.388;2023-02-15T01:30:33;28.95;;;13.27;;
42668;SDS011;29384;42.028;21.388;2023-02-15T01:32:58;34.88;;;12.70;;
42668;SDS011;29384;42.028;21.388;2023-02-15T01:35:25;22.10;;;12.23;;
42668;SDS011;29384;42.028;21.388;2023-02-15T01:37:51;20.58;;;11.70;;
42668;SDS011;29384;42.028;21.388;2023-02-15T01:40:16;19.90;;;12.50;;
42668;SDS011;29384;42.028;21.388;2023-02-15T01:42:42;26.35;;;12.18;;
42668;SDS011;29384;42.028;21.388;2023-02-15T01:47:36;34.50;;;14.88;;
42668;SDS011;29384;42.028;21.388;2023-02-15T01:50:06;25.67;;;13.77;;
42668;SDS011;29384;42.028;21.388;2023-02-15T01:55:38;31.73;;;15.50;;
42668;SDS011;29384;42.028;21.388;2023-02-15T01:58:05;32.45;;;15.88;;
42668;SDS011;29384;42.028;21.388;2023-02-15T02:00:30;24.25;;;13.75;;
42668;SDS011;29384;42.028;21.388;2023-02-15T02:02:56;39.22;;;15.55;;
42668;SDS011;29384;42.028;21.388;2023-02-15T02:05:22;32.60;;;15.70;;
42668;SDS011;29384;42.028;21.388;2023-02-15T02:10:50;31.08;;;15.93;;
42668;SDS011;29384;42.028;21.388;2023-02-15T02:13:16;34.13;;;15.80;;
42668;SDS011;29384;42.028;21.388;2023-02-15T02:15:51;30.38;;;14.52;;
42668;SDS011;29384;42.028;21.388;2023-02-15T02:18:25;30.38;;;16.15;;
42668;SDS011;29384;42.028;21.388;2023-02-15T02:21:16;34.35;;;16.00;;
42668;SDS011;29384;42.028;21.388;2023-02-15T02:31:48;41.15;;;17.70;;
42668;SDS011;29384;42.028;21.388;2023-02-15T02:36:51;38.90;;;17.63;;
42668;SDS011;29384;42.028;21.388;2023-02-15T02:44:32;53.70;;;22.73;;
42668;SDS011;29384;42.028;21.388;2023-02-15T02:47:07;48.75;;;23.65;;
42668;SDS011;29384;42.028;21.388;2023-02-15T02:49:35;44.17;;;22.15;;
42668;SDS011;29384;42.028;21.388;2023-02-15T02:52:02;44.25;;;22.13;;
42668;SDS011;29384;42.028;21.388;2023-02-15T02:54:28;42.50;;;19.15;;
42668;SDS011;29384;42.028;21.388;2023-02-15T02:56:53;40.58;;;17.25;;
42668;SDS011;29384;42.028;21.388;2023-02-15T02:59:21;38.58;;;17.80;;
42668;SDS011;29384;42.028;21.388;2023-02-15T03:02:08;37.55;;;16.38;;
42668;SDS011;29384;42.028;21.388;2023-02-15T03:04:38;20.85;;;11.75;;
42668;SDS011;29384;42.028;21.388;2023-02-15T03:07:11;21.27;;;10.02;;
42668;SDS011;29384;42.028;21.388;2023-02-15T03:09:41;16.75;;;9.35;;
42668;SDS011;29384;42.028;21.388;2023-02-15T03:12:08;15.60;;;8.55;;
42668;SDS011;29384;42.028;21.388;2023-02-15T03:14:34;12.43;;;8.30;;
42668;SDS011;29384;42.028;21.388;2023-02-15T03:17:00;13.52;;;8.70;;
42668;SDS011;29384;42.028;21.388;2023-02-15T03:19:27;14.85;;;9.45;;
42668;SDS011;29384;42.028;21.388;2023-02-15T03:24:47;10.13;;;7.40;;
42668;SDS011;29384;42.028;21.388;2023-02-15T03:27:15;13.23;;;7.45;;
42668;SDS011;29384;42.028;21.388;2023-02-15T03:29:42;14.02;;;8.50;;
42668;SDS011;29384;42.028;21.388;2023-02-15T03:32:08;14.05;;;9.00;;
42668;SDS011;29384;42.028;21.388;2023-02-15T03:34:36;17.45;;;9.68;;
42668;SDS011;29384;42.028;21.388;2023-02-15T03:37:06;16.92;;;10.60;;
42668;SDS011;29384;42.028;21.388;2023-02-15T03:39:42;22.73;;;11.52;;
42668;SDS011;29384;42.028;21.388;2023-02-15T03:42:11;25.73;;;13.50;;
42668;SDS011;29384;42.028;21.388;2023-02-15T03:44:42;19.95;;;11.30;;
42668;SDS011;29384;42.028;21.388;2023-02-15T03:47:15;23.13;;;12.35;;
42668;SDS011;29384;42.028;21.388;2023-02-15T03:49:58;24.40;;;11.85;;
42668;SDS011;29384;42.028;21.388;2023-02-15T03:52:25;24.20;;;12.85;;
42668;SDS011;29384;42.028;21.388;2023-02-15T03:54:51;25.38;;;12.80;;
42668;SDS011;29384;42.028;21.388;2023-02-15T04:00:05;27.80;;;12.68;;
42668;SDS011;29384;42.028;21.388;2023-02-15T04:02:55;24.95;;;12.90;;
42668;SDS011;29384;42.028;21.388;2023-02-15T04:05:23;22.23;;;12.07;;
42668;SDS011;29384;42.028;21.388;2023-02-15T04:07:48;24.00;;;12.10;;
42668;SDS011;29384;42.028;21.388;2023-02-15T04:10:13;26.50;;;12.65;;
42668;SDS011;29384;42.028;21.388;2023-02-15T04:12:57;20.73;;;10.63;;
42668;SDS011;29384;42.028;21.388;2023-02-15T04:15:22;23.45;;;12.48;;
42668;SDS011;29384;42.028;21.388;2023-02-15T04:18:06;28.40;;;13.77;;
42668;SDS011;29384;42.028;21.388;2023-02-15T04:20:31;26.55;;;14.55;;
42668;SDS011;29384;42.028;21.388;2023-02-15T04:23:15;25.13;;;13.50;;
42668;SDS011;29384;42.028;21.388;2023-02-15T04:26:02;27.80;;;14.75;;
42668;SDS011;29384;42.028;21.388;2023-02-15T04:28:28;29.17;;;13.77;;
42668;SDS011;29384;42.028;21.388;2023-02-15T04:30:53;31.67;;;14.25;;
42668;SDS011;29384;42.028;21.388;2023-02-15T04:33:18;29.20;;;14.85;;
42668;SDS011;29384;42.028;21.388;2023-02-15T04:35:44;29.25;;;15.23;;
42668;SDS011;29384;42.028;21.388;2023-02-15T04:38:10;33.45;;;14.60;;
42668;SDS011;29384;42.028;21.388;2023-02-15T04:40:35;26.38;;;15.07;;
42668;SDS011;29384;42.028;21.388;2023-02-15T04:43:00;33.15;;;16.10;;
42668;SDS011;29384;42.028;21.388;2023-02-15T04:45:26;39.42;;;16.42;;
42668;SDS011;29384;42.028;21.388;2023-02-15T04:47:52;26.63;;;14.20;;
42668;SDS011;29384;42.028;21.388;2023-02-15T04:50:17;30.23;;;15.77;;
42668;SDS011;29384;42.028;21.388;2023-02-15T04:52:42;32.10;;;16.15;;
42668;SDS011;29384;42.028;21.388;2023-02-15T04:55:08;33.38;;;17.17;;
42668;SDS011;29384;42.028;21.388;2023-02-15T04:57:33;31.35;;;15.93;;
42668;SDS011;29384;42.028;21.388;2023-02-15T04:59:59;35.30;;;15.57;;
42668;SDS011;29384;42.028;21.388;2023-02-15T05:02:24;29.70;;;15.32;;
42668;SDS011;29384;42.028;21.388;2023-02-15T05:04:49;27.48;;;14.18;;
42668;SDS011;29384;42.028;21.388;2023-02-15T05:07:15;31.23;;;14.75;;
42668;SDS011;29384;42.028;21.388;2023-02-15T05:09:40;31.17;;;15.15;;
42668;SDS011;29384;42.028;21.388;2023-02-15T05:12:05;27.15;;;14.98;;
42668;SDS011;29384;42.028;21.388;2023-02-15T05:14:31;35.17;;;14.52;;
42668;SDS011;29384;42.028;21.388;2023-02-15T05:16:56;25.02;;;14.65;;
42668;SDS011;29384;42.028;21.388;2023-02-15T05:19:23;33.08;;;14.27;;
42668;SDS011;29384;42.028;21.388;2023-02-15T05:21:49;32.88;;;15.25;;
42668;SDS011;29384;42.028;21.388;2023-02-15T05:24:15;32.63;;;17.73;;
42668;SDS011;29384;42.028;21.388;2023-02-15T05:26:58;48.67;;;19.90;;
42668;SDS011;29384;42.028;21.388;2023-02-15T05:29:42;39.40;;;20.70;;
42668;SDS011;29384;42.028;21.388;2023-02-15T05:32:08;37.60;;;19.63;;
42668;SDS011;29384;42.028;21.388;2023-02-15T05:34:33;48.90;;;18.13;;
42668;SDS011;29384;42.028;21.388;2023-02-15T05:36:58;36.85;;;17.65;;
42668;SDS011;29384;42.028;21.388;2023-02-15T05:39:24;43.03;;;19.67;;
42668;SDS011;29384;42.028;21.388;2023-02-15T05:41:49;34.83;;;17.48;;
42668;SDS011;29384;42.028;21.388;2023-02-15T05:44:14;44.13;;;22.17;;
42668;SDS011;29384;42.028;21.388;2023-02-15T05:46:40;46.45;;;21.30;;
42668;SDS011;29384;42.028;21.388;2023-02-15T05:49:05;48.90;;;21.50;;
42668;SDS011;29384;42.028;21.388;2023-02-15T05:51:31;49.97;;;22.73;;
42668;SDS011;29384;42.028;21.388;2023-02-15T05:56:59;44.03;;;22.67;;
42668;SDS011;29384;42.028;21.388;2023-02-15T05:59:24;46.08;;;20.70;;
42668;SDS011;29384;42.028;21.388;2023-02-15T06:01:49;39.88;;;21.38;;
42668;SDS011;29384;42.028;21.388;2023-02-15T06:04:15;59.78;;;27.15;;
42668;SDS011;29384;42.028;21.388;2023-02-15T06:06:40;58.88;;;25.40;;
42668;SDS011;29384;42.028;21.388;2023-02-15T06:12:08;45.65;;;22.25;;
42668;SDS011;29384;42.028;21.388;2023-02-15T06:14:33;43.80;;;22.40;;
42668;SDS011;29384;42.028;21.388;2023-02-15T06:16:59;41.08;;;20.10;;
42668;SDS011;29384;42.028;21.388;2023-02-15T06:19:24;44.03;;;20.25;;
42668;SDS011;29384;42.028;21.388;2023-02-15T06:21:49;39.38;;;19.48;;
42668;SDS011;29384;42.028;21.388;2023-02-15T06:27:17;30.48;;;16.30;;
42668;SDS011;29384;42.028;21.388;2023-02-15T06:29:42;34.15;;;16.83;;
42668;SDS011;29384;42.028;21.388;2023-02-15T06:32:08;46.08;;;18.58;;
42668;SDS011;29384;42.028;21.388;2023-02-15T06:34:33;39.38;;;18.50;;
42668;SDS011;29384;42.028;21.388;2023-02-15T06:36:58;37.85;;;20.17;;
42668;SDS011;29384;42.028;21.388;2023-02-15T06:42:43;37.55;;;19.00;;
42668;SDS011;29384;42.028;21.388;2023-02-15T06:45:09;54.72;;;23.02;;
42668;SDS011;29384;42.028;21.388;2023-02-15T06:47:34;58.83;;;26.48;;
42668;SDS011;29384;42.028;21.388;2023-02-15T06:50:00;63.92;;;28.83;;
42668;SDS011;29384;42.028;21.388;2023-02-15T06:52:25;69.72;;;30.83;;
42668;SDS011;29384;42.028;21.388;2023-02-15T06:54:51;66.82;;;29.63;;
42668;SDS011;29384;42.028;21.388;2023-02-15T06:57:16;63.20;;;28.92;;
42668;SDS011;29384;42.028;21.388;2023-02-15T06:59:41;68.55;;;30.17;;
42668;SDS011;29384;42.028;21.388;2023-02-15T07:02:08;66.93;;;29.83;;
42668;SDS011;29384;42.028;21.388;2023-02-15T07:04:33;65.07;;;29.30;;
42668;SDS011;29384;42.028;21.388;2023-02-15T07:06:58;65.38;;;28.05;;
42668;SDS011;29384;42.028;21.388;2023-02-15T07:12:26;47.80;;;23.83;;
42668;SDS011;29384;42.028;21.388;2023-02-15T07:15:11;43.55;;;20.58;;
42668;SDS011;29384;42.028;21.388;2023-02-15T07:17:37;25.73;;;12.90;;
42668;SDS011;29384;42.028;21.388;2023-02-15T07:20:03;9.07;;;7.35;;
42668;SDS011;29384;42.028;21.388;2023-02-15T07:22:29;8.60;;;6.80;;
42668;SDS011;29384;42.028;21.388;2023-02-15T07:27:57;9.15;;;6.78;;
42668;SDS011;29384;42.028;21.388;2023-02-15T07:30:23;7.80;;;6.25;;
42668;SDS011;29384;42.028;21.388;2023-02-15T07:32:48;8.48;;;5.78;;
42668;SDS011;29384;42.028;21.388;2023-02-15T07:35:32;10.48;;;6.47;;
42668;SDS011;29384;42.028;21.388;2023-02-15T07:37:58;9.85;;;6.75;;
42668;SDS011;29384;42.028;21.388;2023-02-15T07:40:23;6.47;;;5.85;;
42668;SDS011;29384;42.028;21.388;2023-02-15T07:42:49;9.45;;;5.75;;
42668;SDS011;29384;42.028;21.388;2023-02-15T07:45:16;6.68;;;5.43;;
42668;SDS011;29384;42.028;21.388;2023-02-15T07:47:41;6.93;;;5.72;;
42668;SDS011;29384;42.028;21.388;2023-02-15T07:50:07;7.90;;;5.75;;
42668;SDS011;29384;42.028;21.388;2023-02-15T07:52:32;7.20;;;5.97;;
42668;SDS011;29384;42.028;21.388;2023-02-15T07:58:00;6.82;;;5.57;;
42668;SDS011;29384;42.028;21.388;2023-02-15T08:00:26;6.18;;;4.93;;
42668;SDS011;29384;42.028;21.388;2023-02-15T08:02:52;10.75;;;5.55;;
42668;SDS011;29384;42.028;21.388;2023-02-15T08:05:46;4.60;;;4.20;;
42668;SDS011;29384;42.028;21.388;2023-02-15T08:08:12;9.57;;;5.38;;
42668;SDS011;29384;42.028;21.388;2023-02-15T08:11:05;14.13;;;6.15;;
42668;SDS011;29384;42.028;21.388;2023-02-15T08:13:50;13.57;;;5.70;;
42668;SDS011;29384;42.028;21.388;2023-02-15T08:16:20;8.68;;;5.30;;
42668;SDS011;29384;42.028;21.388;2023-02-15T08:18:45;7.07;;;5.53;;
42668;SDS011;29384;42.028;21.388;2023-02-15T08:21:10;5.03;;;4.50;;
42668;SDS011;29384;42.028;21.388;2023-02-15T08:23:35;5.65;;;5.03;;
42668;SDS011;29384;42.028;21.388;2023-02-15T08:26:01;5.30;;;4.70;;
42668;SDS011;29384;42.028;21.388;2023-02-15T08:28:26;6.00;;;5.20;;
42668;SDS011;29384;42.028;21.388;2023-02-15T08:30:51;5.03;;;4.63;;
42668;SDS011;29384;42.028;21.388;2023-02-15T08:33:17;5.13;;;4.65;;
42668;SDS011;29384;42.028;21.388;2023-02-15T08:35:43;5.90;;;5.32;;
42668;SDS011;29384;42.028;21.388;2023-02-15T08:38:08;4.93;;;4.50;;
42668;SDS011;29384;42.028;21.388;2023-02-15T08:40:33;7.32;;;5.68;;
42668;SDS011;29384;42.028;21.388;2023-02-15T08:42:59;6.60;;;4.90;;
42668;SDS011;29384;42.028;21.388;2023-02-15T08:45:25;6.22;;;5.20;;
42668;SDS011;29384;42.028;21.388;2023-02-15T08:47:50;6.93;;;5.15;;
42668;SDS011;29384;42.028;21.388;2023-02-15T08:50:15;6.60;;;5.68;;
42668;SDS011;29384;42.028;21.388;2023-02-15T08:52:41;13.95;;;6.22;;
42668;SDS011;29384;42.028;21.388;2023-02-15T08:58:09;5.80;;;5.15;;
42668;SDS011;29384;42.028;21.388;2023-02-15T09:00:34;5.63;;;5.05;;
42668;SDS011;29384;42.028;21.388;2023-02-15T09:02:59;7.80;;;4.80;;
42668;SDS011;29384;42.028;21.388;2023-02-15T09:05:25;5.20;;;4.70;;
42668;SDS011;29384;42.028;21.388;2023-02-15T09:07:50;4.45;;;4.03;;
42668;SDS011;29384;42.028;21.388;2023-02-15T09:13:18;5.93;;;5.22;;
42668;SDS011;29384;42.028;21.388;2023-02-15T09:15:44;5.18;;;4.72;;
42668;SDS011;29384;42.028;21.388;2023-02-15T09:18:09;5.63;;;3.90;;
42668;SDS011;29384;42.028;21.388;2023-02-15T09:20:36;5.03;;;4.10;;
42668;SDS011;29384;42.028;21.388;2023-02-15T09:23:02;15.82;;;5.70;;
42668;SDS011;29384;42.028;21.388;2023-02-15T09:28:30;6.53;;;5.47;;
42668;SDS011;29384;42.028;21.388;2023-02-15T09:30:57;5.85;;;5.03;;
42668;SDS011;29384;42.028;21.388;2023-02-15T09:33:29;5.45;;;4.72;;
42668;SDS011;29384;42.028;21.388;2023-02-15T09:35:54;5.40;;;4.75;;
42668;SDS011;29384;42.028;21.388;2023-02-15T09:38:21;6.30;;;4.97;;
42668;SDS011;29384;42.028;21.388;2023-02-15T09:44:06;7.57;;;5.25;;
42668;SDS011;29384;42.028;21.388;2023-02-15T09:49:48;5.57;;;5.00;;
42668;SDS011;29384;42.028;21.388;2023-02-15T09:52:00;5.00;;;4.50;;
42668;SDS011;29384;42.028;21.388;2023-02-15T09:57:00;5.53;;;5.03;;
42668;SDS011;29384;42.028;21.388;2023-02-15T10:19:49;8.02;;;5.43;;
42668;SDS011;29384;42.028;21.388;2023-02-15T10:22:21;5.85;;;4.80;;
42668;SDS011;29384;42.028;21.388;2023-02-15T10:24:55;4.95;;;4.47;;
42668;SDS011;29384;42.028;21.388;2023-02-15T10:27:25;5.88;;;5.22;;
42668;SDS011;29384;42.028;21.388;2023-02-15T10:32:22;15.50;;;5.28;;
42668;SDS011;29384;42.028;21.388;2023-02-15T10:40:41;6.53;;;5.13;;
42668;SDS011;29384;42.028;21.388;2023-02-15T10:43:20;5.07;;;4.40;;
42668;SDS011;29384;42.028;21.388;2023-02-15T10:45:54;5.38;;;4.75;;
42668;SDS011;29384;42.028;21.388;2023-02-15T10:58:50;4.63;;;4.20;;
42668;SDS011;29384;42.028;21.388;2023-02-15T11:01:24;5.57;;;5.05;;
42668;SDS011;29384;42.028;21.388;2023-02-15T11:06:29;5.20;;;4.20;;
42668;SDS011;29384;42.028;21.388;2023-02-15T11:08:57;7.53;;;5.07;;
42668;SDS011;29384;42.028;21.388;2023-02-15T11:11:26;5.15;;;4.65;;
42668;SDS011;29384;42.028;21.388;2023-02-15T11:13:53;5.90;;;4.95;;
42668;SDS011;29384;42.028;21.388;2023-02-15T11:16:22;11.27;;;4.57;;
42668;SDS011;29384;42.028;21.388;2023-02-15T11:18:57;3.88;;;3.58;;
42668;SDS011;29384;42.028;21.388;2023-02-15T11:21:27;5.82;;;5.05;;
42668;SDS011;29384;42.028;21.388;2023-02-15T11:23:53;4.88;;;4.43;;
42668;SDS011;29384;42.028;21.388;2023-02-15T11:28:55;5.20;;;4.72;;
42668;SDS011;29384;42.028;21.388;2023-02-15T11:31:23;8.18;;;4.72;;
42668;SDS011;29384;42.028;21.388;2023-02-15T11:33:51;5.10;;;4.63;;
42668;SDS011;29384;42.028;21.388;2023-02-15T11:36:19;7.55;;;5.57;;
42668;SDS011;29384;42.028;21.388;2023-02-15T11:38:46;6.18;;;5.47;;
42668;SDS011;29384;42.028;21.388;2023-02-15T11:41:15;7.65;;;4.63;;
42668;SDS011;29384;42.028;21.388;2023-02-15T11:43:48;9.80;;;4.85;;
42668;SDS011;29384;42.028;21.388;2023-02-15T11:46:16;5.72;;;3.75;;
42668;SDS011;29384;42.028;21.388;2023-02-15T11:48:43;5.05;;;4.55;;
42668;SDS011;29384;42.028;21.388;2023-02-15T11:51:09;5.65;;;3.75;;
42668;SDS011;29384;42.028;21.388;2023-02-15T11:53:37;5.82;;;4.85;;
42668;SDS011;29384;42.028;21.388;2023-02-15T11:56:03;5.13;;;4.60;;
42668;SDS011;29384;42.028;21.388;2023-02-15T11:58:50;6.15;;;5.60;;
42668;SDS011;29384;42.028;21.388;2023-02-15T12:03:57;5.88;;;4.82;;
42668;SDS011;29384;42.028;21.388;2023-02-15T12:06:28;4.43;;;4.03;;
42668;SDS011;29384;42.028;21.388;2023-02-15T12:08:56;5.75;;;5.13;;
42668;SDS011;29384;42.028;21.388;2023-02-15T12:11:37;5.35;;;4.88;;
42668;SDS011;29384;42.028;21.388;2023-02-15T12:14:07;5.30;;;4.82;;
42668;SDS011;29384;42.028;21.388;2023-02-15T12:16:46;6.40;;;5.80;;
42668;SDS011;29384;42.028;21.388;2023-02-15T12:19:18;7.22;;;5.28;;
42668;SDS011;29384;42.028;21.388;2023-02-15T12:21:48;4.97;;;4.55;;
42668;SDS011;29384;42.028;21.388;2023-02-15T12:26:42;5.32;;;4.93;;
42668;SDS011;29384;42.028;21.388;2023-02-15T12:29:12;5.63;;;4.68;;
42668;SDS011;29384;42.028;21.388;2023-02-15T12:31:40;6.63;;;5.35;;
42668;SDS011;29384;42.028;21.388;2023-02-15T12:34:17;6.28;;;5.53;;
42668;SDS011;29384;42.028;21.388;2023-02-15T12:36:45;9.55;;;5.72;;
42668;SDS011;29384;42.028;21.388;2023-02-15T12:39:20;4.85;;;4.47;;
42668;SDS011;29384;42.028;21.388;2023-02-15T12:44:26;9.30;;;6.00;;
42668;SDS011;29384;42.028;21.388;2023-02-15T12:47:10;6.55;;;5.45;;
42668;SDS011;29384;42.028;21.388;2023-02-15T12:49:42;6.80;;;4.90;;
42668;SDS011;29384;42.028;21.388;2023-02-15T12:54:43;6.95;;;5.95;;
42668;SDS011;29384;42.028;21.388;2023-02-15T12:57:41;8.60;;;6.32;;
42668;SDS011;29384;42.028;21.388;2023-02-15T13:00:02;10.25;;;6.70;;
42668;SDS011;29384;42.028;21.388;2023-02-15T13:04:56;13.23;;;6.90;;
42668;SDS011;29384;42.028;21.388;2023-02-15T13:07:23;6.32;;;5.70;;
42668;SDS011;29384;42.028;21.388;2023-02-15T13:09:49;7.13;;;6.32;;
42668;SDS011;29384;42.028;21.388;2023-02-15T13:14:43;6.35;;;5.75;;
42668;SDS011;29384;42.028;21.388;2023-02-15T13:17:09;6.82;;;5.80;;
42668;SDS011;29384;42.028;21.388;2023-02-15T13:22:01;6.88;;;6.18;;
42668;SDS011;29384;42.028;21.388;2023-02-15T13:26:52;6.70;;;5.70;;
42668;SDS011;29384;42.028;21.388;2023-02-15T13:31:47;7.35;;;6.40;;
42668;SDS011;29384;42.028;21.388;2023-02-15T13:34:18;7.88;;;7.00;;
42668;SDS011;29384;42.028;21.388;2023-02-15T13:54:41;6.32;;;5.72;;
42668;SDS011;29384;42.028;21.388;2023-02-15T14:27:40;13.63;;;8.88;;
42668;SDS011;29384;42.028;21.388;2023-02-15T14:30:13;13.60;;;9.48;;
42668;SDS011;29384;42.028;21.388;2023-02-15T14:32:41;16.65;;;8.50;;
42668;SDS011;29384;42.028;21.388;2023-02-15T14:35:14;9.35;;;7.38;;
42668;SDS011;29384;42.028;21.388;2023-02-15T14:40:16;9.73;;;6.80;;
42668;SDS011;29384;42.028;21.388;2023-02-15T14:46:16;12.32;;;7.50;;
42668;SDS011;29384;42.028;21.388;2023-02-15T14:48:38;13.70;;;7.78;;
42668;SDS011;29384;42.028;21.388;2023-02-15T14:51:07;10.32;;;7.55;;
42668;SDS011;29384;42.028;21.388;2023-02-15T14:53:33;11.25;;;8.55;;
42668;SDS011;29384;42.028;21.388;2023-02-15T15:01:41;17.40;;;8.82;;
42668;SDS011;29384;42.028;21.388;2023-02-15T15:04:14;12.82;;;8.68;;
42668;SDS011;29384;42.028;21.388;2023-02-15T15:06:56;17.35;;;8.57;;
42668;SDS011;29384;42.028;21.388;2023-02-15T15:09:24;16.42;;;9.05;;
42668;SDS011;29384;42.028;21.388;2023-02-15T15:14:53;25.35;;;13.52;;
42668;SDS011;29384;42.028;21.388;2023-02-15T15:19:57;20.00;;;14.30;;
42668;SDS011;29384;42.028;21.388;2023-02-15T15:22:24;18.42;;;13.60;;
42668;SDS011;29384;42.028;21.388;2023-02-15T15:24:56;19.90;;;8.73;;
42668;SDS011;29384;42.028;21.388;2023-02-15T15:35:33;12.85;;;8.27;;
42668;SDS011;29384;42.028;21.388;2023-02-15T15:48:57;10.48;;;7.45;;
42668;SDS011;29384;42.028;21.388;2023-02-15T15:51:32;15.18;;;8.60;;
42668;SDS011;29384;42.028;21.388;2023-02-15T15:53:58;16.33;;;7.55;;
42668;SDS011;29384;42.028;21.388;2023-02-15T15:56:29;17.55;;;8.95;;
42668;SDS011;29384;42.028;21.388;2023-02-15T15:59:04;9.40;;;7.72;;
42668;SDS011;29384;42.028;21.388;2023-02-15T16:01:33;10.20;;;7.80;;
42668;SDS011;29384;42.028;21.388;2023-02-15T16:03:59;11.60;;;7.90;;
42668;SDS011;29384;42.028;21.388;2023-02-15T16:06:35;11.52;;;9.10;;
42668;SDS011;29384;42.028;21.388;2023-02-15T16:09:10;15.63;;;9.25;;
42668;SDS011;29384;42.028;21.388;2023-02-15T16:11:36;13.18;;;9.07;;
42668;SDS011;29384;42.028;21.388;2023-02-15T16:14:08;16.52;;;9.23;;
42668;SDS011;29384;42.028;21.388;2023-02-15T16:16:34;27.30;;;13.20;;
42668;SDS011;29384;42.028;21.388;2023-02-15T16:18:59;24.58;;;12.60;;
42668;SDS011;29384;42.028;21.388;2023-02-15T16:21:34;32.00;;;15.85;;
42668;SDS011;29384;42.028;21.388;2023-02-15T16:26:47;26.48;;;16.15;;
42668;SDS011;29384;42.028;21.388;2023-02-15T16:29:18;28.50;;;16.33;;
42668;SDS011;29384;42.028;21.388;2023-02-15T16:32:01;39.75;;;16.85;;
42668;SDS011;29384;42.028;21.388;2023-02-15T16:34:26;25.38;;;16.27;;
42668;SDS011;29384;42.028;21.388;2023-02-15T16:37:11;30.20;;;16.08;;
42668;SDS011;29384;42.028;21.388;2023-02-15T16:39:38;31.23;;;17.33;;
42668;SDS011;29384;42.028;21.388;2023-02-15T16:42:05;38.42;;;17.48;;
42668;SDS011;29384;42.028;21.388;2023-02-15T16:44:31;45.50;;;18.55;;
42668;SDS011;29384;42.028;21.388;2023-02-15T16:46:57;29.08;;;15.40;;
42668;SDS011;29384;42.028;21.388;2023-02-15T16:49:27;38.75;;;17.55;;
42668;SDS011;29384;42.028;21.388;2023-02-15T16:51:57;34.47;;;16.10;;
42668;SDS011;29384;42.028;21.388;2023-02-15T16:54:23;29.00;;;16.77;;
42668;SDS011;29384;42.028;21.388;2023-02-15T16:56:49;29.23;;;17.83;;
42668;SDS011;29384;42.028;21.388;2023-02-15T17:02:16;28.52;;;17.27;;
42668;SDS011;29384;42.028;21.388;2023-02-15T17:04:42;37.47;;;16.45;;
42668;SDS011;29384;42.028;21.388;2023-02-15T17:07:19;31.33;;;16.52;;
42668;SDS011;29384;42.028;21.388;2023-02-15T17:09:51;27.25;;;16.35;;
42668;SDS011;29384;42.028;21.388;2023-02-15T17:20:28;32.13;;;16.35;;
42668;SDS011;29384;42.028;21.388;2023-02-15T17:22:53;29.20;;;16.48;;
42668;SDS011;29384;42.028;21.388;2023-02-15T17:25:20;27.35;;;16.08;;
42668;SDS011;29384;42.028;21.388;2023-02-15T17:27:50;25.85;;;13.98;;
42668;SDS011;29384;42.028;21.388;2023-02-15T17:30:37;31.58;;;16.33;;
42668;SDS011;29384;42.028;21.388;2023-02-15T17:33:03;27.55;;;15.88;;
42668;SDS011;29384;42.028;21.388;2023-02-15T17:35:30;35.35;;;18.60;;
42668;SDS011;29384;42.028;21.388;2023-02-15T17:40:27;35.58;;;18.58;;
42668;SDS011;29384;42.028;21.388;2023-02-15T17:42:54;33.33;;;19.13;;
42668;SDS011;29384;42.028;21.388;2023-02-15T17:45:19;33.97;;;18.35;;
42668;SDS011;29384;42.028;21.388;2023-02-15T17:47:45;30.85;;;16.13;;
42668;SDS011;29384;42.028;21.388;2023-02-15T17:50:15;26.65;;;15.82;;
42668;SDS011;29384;42.028;21.388;2023-02-15T17:52:42;28.73;;;15.23;;
42668;SDS011;29384;42.028;21.388;2023-02-15T17:55:12;36.88;;;17.75;;
42668;SDS011;29384;42.028;21.388;2023-02-15T17:57:56;29.83;;;17.38;;
42668;SDS011;29384;42.028;21.388;2023-02-15T18:00:21;30.55;;;17.15;;
42668;SDS011;29384;42.028;21.388;2023-02-15T18:03:07;32.95;;;16.63;;
42668;SDS011;29384;42.028;21.388;2023-02-15T18:05:52;27.98;;;15.32;;
42668;SDS011;29384;42.028;21.388;2023-02-15T18:08:36;44.97;;;17.48;;
42668;SDS011;29384;42.028;21.388;2023-02-15T18:11:20;37.53;;;21.70;;
42668;SDS011;29384;42.028;21.388;2023-02-15T18:14:07;43.90;;;21.98;;
42668;SDS011;29384;42.028;21.388;2023-02-15T18:16:34;44.40;;;23.30;;
42668;SDS011;29384;42.028;21.388;2023-02-15T18:19:00;45.13;;;22.63;;
42668;SDS011;29384;42.028;21.388;2023-02-15T18:21:26;48.15;;;21.65;;
42668;SDS011;29384;42.028;21.388;2023-02-15T18:23:51;34.88;;;18.85;;
42668;SDS011;29384;42.028;21.388;2023-02-15T18:26:21;40.03;;;20.70;;
42668;SDS011;29384;42.028;21.388;2023-02-15T18:28:47;37.88;;;16.73;;
42668;SDS011;29384;42.028;21.388;2023-02-15T18:31:12;31.92;;;18.35;;
42668;SDS011;29384;42.028;21.388;2023-02-15T18:33:39;40.78;;;19.38;;
42668;SDS011;29384;42.028;21.388;2023-02-15T18:36:06;35.70;;;19.52;;
42668;SDS011;29384;42.028;21.388;2023-02-15T18:38:32;37.22;;;18.40;;
42668;SDS011;29384;42.028;21.388;2023-02-15T18:40:58;36.58;;;19.83;;
42668;SDS011;29384;42.028;21.388;2023-02-15T18:43:24;33.40;;;16.95;;